Time;durP1;ratioP1;P1;durP2;ratioP2;P2;SDS_P1;SDS_P2;PMS_P1;PMS_P2;Temp;Humidity;BMP_temperature;BMP_pressure;BME280_temperature;BME280_humidity;BME280_pressure;Samples;Min_cycle;Max_cycle;Signal;HPM_P1;HPM_P2
2021/09/17 00:01:53;;;;;;;14.20;11.43;;;;;;;13.91;99.04;100331.78;5055232;28;20111;-68
2021/09/17 00:04:20;;;;;;;15.23;12.15;;;;;;;13.91;99.14;100331.78;5056554;28;20511;-68
2021/09/17 00:06:50;;;;;;;19.75;12.20;;;;;;;13.92;98.89;100328.13;5054532;28;20048;-68
2021/09/17 00:09:19;;;;;;;14.73;12.63;;;;;;;13.96;98.69;100334.13;5056638;28;20362;-69
2021/09/17 00:11:47;;;;;;;21.15;12.55;;;;;;;13.92;98.81;100327.28;5056048;28;20329;-69
2021/09/17 00:14:15;;;;;;;15.25;12.27;;;;;;;13.78;98.72;100314.88;5053974;28;20080;-69
2021/09/17 00:16:42;;;;;;;14.68;12.32;;;;;;;13.91;98.67;100336.28;5036219;28;20089;-69
2021/09/17 00:19:09;;;;;;;15.02;12.25;;;;;;;13.90;98.40;100322.00;5035135;28;20069;-69
2021/09/17 00:21:36;;;;;;;15.60;13.00;;;;;;;13.87;98.70;100327.59;5036132;28;20112;-69
2021/09/17 00:24:04;;;;;;;16.42;12.05;;;;;;;13.86;98.99;100317.84;5036189;28;20076;-68
2021/09/17 00:26:31;;;;;;;16.75;12.50;;;;;;;13.84;99.03;100326.00;5034707;28;20046;-68
2021/09/17 00:28:58;;;;;;;15.10;12.38;;;;;;;13.89;98.68;100325.66;5034810;28;20120;-68
2021/09/17 00:31:25;;;;;;;17.10;12.23;;;;;;;13.89;98.78;100317.63;5035846;28;20076;-68
2021/09/17 00:33:53;;;;;;;17.98;12.43;;;;;;;13.91;98.84;100321.06;5039094;28;20048;-69
2021/09/17 00:36:20;;;;;;;15.93;12.18;;;;;;;13.95;98.55;100327.06;5038414;28;20069;-68
2021/09/17 00:38:49;;;;;;;16.25;12.50;;;;;;;13.96;98.79;100324.25;5055642;28;20057;-68
2021/09/17 00:41:17;;;;;;;17.55;13.15;;;;;;;13.96;98.17;100326.94;5055669;28;20040;-69
2021/09/17 00:43:44;;;;;;;22.17;13.35;;;;;;;13.96;98.07;100321.56;5055612;28;20049;-70
2021/09/17 00:46:11;;;;;;;18.42;13.13;;;;;;;13.92;98.13;100313.84;5055590;28;20047;-69
2021/09/17 00:48:38;;;;;;;18.75;13.70;;;;;;;13.84;98.51;100309.06;5055513;28;20052;-69
2021/09/17 00:51:05;;;;;;;20.42;13.10;;;;;;;13.88;98.65;100315.91;5054407;28;20377;-69
2021/09/17 00:53:33;;;;;;;21.05;13.70;;;;;;;13.87;98.53;100314.19;5055395;28;20075;-69
2021/09/17 00:56:02;;;;;;;16.98;13.77;;;;;;;13.86;98.72;100317.84;5055492;28;20041;-69
2021/09/17 00:58:30;;;;;;;16.15;13.85;;;;;;;13.83;98.58;100307.31;5054233;28;20421;-68
2021/09/17 01:00:57;;;;;;;22.92;14.45;;;;;;;13.83;99.02;100310.00;5054179;28;20087;-68
2021/09/17 01:03:25;;;;;;;21.08;13.95;;;;;;;13.79;99.00;100312.06;5055377;28;20040;-69
2021/09/17 01:05:52;;;;;;;20.60;14.02;;;;;;;13.75;99.24;100307.03;5054150;28;20135;-69
2021/09/17 01:08:19;;;;;;;20.40;13.73;;;;;;;13.74;99.44;100313.38;5055269;28;20095;-68
2021/09/17 01:10:47;;;;;;;20.05;14.80;;;;;;;13.74;99.06;100305.31;5055209;28;20426;-68
2021/09/17 01:13:16;;;;;;;17.90;13.73;;;;;;;13.74;99.37;100310.69;5054122;28;20099;-69
2021/09/17 01:15:43;;;;;;;17.40;13.23;;;;;;;13.72;99.39;100300.06;5041941;28;20049;-69
2021/09/17 01:18:10;;;;;;;19.13;14.55;;;;;;;13.66;99.89;100304.06;5033993;28;20482;-68
2021/09/17 01:20:37;;;;;;;21.40;14.43;;;;;;;13.70;99.59;100297.50;5035113;28;20121;-69
2021/09/17 01:23:04;;;;;;;20.95;15.40;;;;;;;13.73;99.63;100303.59;5034945;28;20120;-69
2021/09/17 01:25:31;;;;;;;21.38;14.25;;;;;;;13.67;99.77;100296.88;5035086;28;20045;-69
2021/09/17 01:27:58;;;;;;;19.20;15.15;;;;;;;13.70;100.00;100302.88;5034851;28;20041;-69
2021/09/17 01:30:25;;;;;;;20.25;14.52;;;;;;;13.70;99.80;100296.63;5034771;28;20060;-68
2021/09/17 01:32:53;;;;;;;21.45;14.30;;;;;;;13.71;99.68;100299.22;5034922;28;20041;-68
2021/09/17 01:35:22;;;;;;;20.30;15.10;;;;;;;13.75;99.12;100290.94;5044183;28;20468;-69
2021/09/17 01:37:50;;;;;;;20.67;14.30;;;;;;;13.82;99.13;100302.94;5054783;28;20071;-69
2021/09/17 01:40:18;;;;;;;17.02;14.25;;;;;;;13.79;98.62;100279.03;5054688;28;20418;-68
2021/09/17 01:42:46;;;;;;;22.52;15.02;;;;;;;13.86;98.92;100296.38;5054759;28;20120;-68
2021/09/17 01:45:14;;;;;;;18.42;14.35;;;;;;;13.88;99.11;100290.91;5054720;28;20045;-68
2021/09/17 01:47:41;;;;;;;21.55;14.05;;;;;;;13.94;98.80;100285.09;5054643;28;20402;-69
2021/09/17 01:50:09;;;;;;;18.60;13.63;;;;;;;13.95;98.51;100284.13;5053452;28;20182;-68
2021/09/17 01:52:39;;;;;;;19.40;15.95;;;;;;;14.01;97.91;100277.44;5054581;28;20076;-68
2021/09/17 01:55:07;;;;;;;20.27;14.55;;;;;;;13.99;97.85;100278.41;5054825;28;20128;-68
2021/09/17 01:57:34;;;;;;;19.48;14.52;;;;;;;13.98;97.90;100276.72;5053845;28;20103;-68
2021/09/17 02:00:05;;;;;;;21.63;15.25;;;;;;;13.99;98.14;100267.69;5053973;28;20048;-68
2021/09/17 02:02:34;;;;;;;18.50;14.23;;;;;;;14.03;98.18;100267.44;5055782;28;20450;-67
2021/09/17 02:05:03;;;;;;;22.10;16.05;;;;;;;14.05;98.03;100263.69;5057869;28;20049;-67
2021/09/17 02:07:30;;;;;;;21.08;15.13;;;;;;;14.05;98.18;100263.69;5054884;28;20096;-69
2021/09/17 02:09:57;;;;;;;19.33;14.77;;;;;;;14.09;97.91;100265.19;5056288;28;20116;-69
2021/09/17 02:12:25;;;;;;;22.55;16.25;;;;;;;14.11;97.88;100263.22;5053398;28;20045;-69
2021/09/17 02:14:53;;;;;;;19.88;16.23;;;;;;;14.15;97.67;100263.03;5054266;28;20160;-68
2021/09/17 02:17:22;;;;;;;21.05;15.63;;;;;;;14.17;97.96;100261.06;5070112;28;20152;-68
2021/09/17 02:19:49;;;;;;;19.65;16.08;;;;;;;14.19;98.01;100254.63;5069937;28;20122;-69
2021/09/17 02:22:16;;;;;;;20.95;16.40;;;;;;;14.16;97.83;100249.47;5054280;28;20041;-69
2021/09/17 02:24:43;;;;;;;25.08;17.17;;;;;;;14.23;97.52;100250.72;5054362;28;20128;-69
2021/09/17 02:27:10;;;;;;;29.02;16.75;;;;;;;14.21;97.91;100247.28;5053071;28;20074;-69
2021/09/17 02:29:37;;;;;;;20.67;16.27;;;;;;;14.23;97.95;100249.88;5056534;28;20088;-69
2021/09/17 02:32:04;;;;;;;24.65;17.05;;;;;;;14.30;97.47;100247.56;5058218;28;20072;-69
2021/09/17 02:34:31;;;;;;;20.08;17.02;;;;;;;14.28;96.99;100242.34;5049495;28;20103;-68
2021/09/17 02:36:58;;;;;;;24.55;16.83;;;;;;;14.26;97.61;100239.75;5038229;28;20430;-69
2021/09/17 02:39:25;;;;;;;22.70;18.13;;;;;;;14.24;97.93;100238.16;5036986;28;20053;-69
2021/09/17 02:41:53;;;;;;;22.63;17.08;;;;;;;14.30;97.86;100240.38;5038013;28;20041;-69
2021/09/17 02:44:20;;;;;;;24.42;18.88;;;;;;;14.23;97.57;100229.22;5036870;28;20465;-69
2021/09/17 02:46:47;;;;;;;23.77;17.95;;;;;;;14.31;97.88;100241.22;5036864;28;20442;-69
2021/09/17 02:49:14;;;;;;;21.55;17.27;;;;;;;14.25;98.04;100235.38;5038052;28;20350;-68
2021/09/17 02:51:41;;;;;;;24.30;17.90;;;;;;;14.22;98.39;100243.63;5037466;28;20124;-68
2021/09/17 02:54:08;;;;;;;24.40;17.10;;;;;;;14.21;98.35;100230.31;5037090;28;20076;-69
2021/09/17 02:56:35;;;;;;;24.73;18.58;;;;;;;14.27;97.79;100232.53;5037734;28;20446;-69
2021/09/17 02:59:03;;;;;;;23.05;18.17;;;;;;;14.28;97.67;100230.72;5037400;28;20083;-68
2021/09/17 03:01:30;;;;;;;22.92;17.75;;;;;;;14.24;98.01;100232.78;5037493;28;20045;-68
2021/09/17 03:03:57;;;;;;;21.23;18.15;;;;;;;14.22;98.04;100224.84;5037378;28;20053;-68
2021/09/17 03:06:24;;;;;;;24.42;19.48;;;;;;;14.24;97.82;100222.91;5037370;28;20041;-68
2021/09/17 03:08:51;;;;;;;25.77;17.75;;;;;;;14.24;97.49;100220.22;5037290;28;20042;-68
2021/09/17 03:11:20;;;;;;;19.55;16.98;;;;;;;14.21;97.78;100212.41;5037282;28;20041;-68
2021/09/17 03:13:47;;;;;;;27.33;19.05;;;;;;;14.20;97.86;100221.44;5037397;28;20140;-68
2021/09/17 03:16:14;;;;;;;22.60;18.17;;;;;;;14.20;97.92;100217.88;5053534;28;20040;-69
2021/09/17 03:18:41;;;;;;;27.15;19.55;;;;;;;14.21;97.36;100223.13;5056160;28;20049;-69
2021/09/17 03:21:08;;;;;;;22.38;17.73;;;;;;;14.21;97.40;100215.09;5056214;28;20357;-68
2021/09/17 03:23:37;;;;;;;24.05;18.38;;;;;;;14.20;97.35;100216.06;5055978;28;20148;-69
2021/09/17 03:26:04;;;;;;;23.58;18.15;;;;;;;14.20;97.13;100209.81;5055960;28;20084;-69
2021/09/17 03:28:31;;;;;;;25.13;18.42;;;;;;;14.17;97.19;100208.22;5056997;28;20053;-68
2021/09/17 03:30:58;;;;;;;21.85;18.08;;;;;;;14.22;97.04;100208.75;5056600;28;20499;-68
2021/09/17 03:33:25;;;;;;;23.98;18.67;;;;;;;14.22;97.28;100215.94;5056891;28;20045;-69
2021/09/17 03:35:53;;;;;;;25.83;18.10;;;;;;;14.26;96.91;100206.66;5056687;28;20045;-69
2021/09/17 03:38:21;;;;;;;25.02;18.70;;;;;;;14.25;96.86;100210.34;5057068;28;20056;-68
2021/09/17 03:40:48;;;;;;;24.40;16.98;;;;;;;14.26;96.53;100210.22;5055784;28;20099;-68
2021/09/17 03:43:15;;;;;;;22.95;18.00;;;;;;;14.22;96.98;100211.41;5055676;28;20068;-69
2021/09/17 03:45:42;;;;;;;23.55;18.60;;;;;;;14.18;97.58;100203.72;5054598;28;20423;-69
2021/09/17 03:48:12;;;;;;;21.05;18.10;;;;;;;14.21;97.34;100203.47;5055669;28;20076;-68
2021/09/17 03:50:39;;;;;;;23.75;18.58;;;;;;;14.23;97.13;100207.75;5056217;28;20049;-68
2021/09/17 03:53:07;;;;;;;25.55;18.50;;;;;;;14.22;96.63;100200.69;5037031;28;20632;-68
2021/09/17 03:55:34;;;;;;;26.05;18.83;;;;;;;14.26;96.65;100194.13;5036620;28;20046;-68
2021/09/17 03:58:03;;;;;;;22.55;17.27;;;;;;;14.24;96.91;100200.56;5035377;28;20060;-69
2021/09/17 04:00:30;;;;;;;25.15;17.80;;;;;;;14.26;96.80;100199.50;5040329;28;20429;-68
2021/09/17 04:02:57;;;;;;;20.85;17.52;;;;;;;14.30;96.53;100200.09;5056312;28;20391;-69
2021/09/17 04:05:24;;;;;;;24.92;18.20;;;;;;;14.30;96.46;100196.56;5056174;28;20057;-69
2021/09/17 04:07:52;;;;;;;28.20;17.95;;;;;;;14.28;96.78;100193.16;5055798;28;20037;-68
2021/09/17 04:10:19;;;;;;;22.33;16.80;;;;;;;14.17;96.85;100184.06;5056051;28;20067;-68
2021/09/17 04:12:47;;;;;;;24.85;18.27;;;;;;;14.31;96.71;100192.91;5055693;28;20044;-69
2021/09/17 04:15:14;;;;;;;21.73;17.65;;;;;;;14.27;96.61;100186.91;5048736;28;20166;-69
2021/09/17 04:17:43;;;;;;;25.13;18.73;;;;;;;14.25;97.04;100189.72;5055927;28;20118;-69
2021/09/17 04:20:11;;;;;;;21.92;16.92;;;;;;;14.18;97.36;100185.81;5046319;28;20041;-69
2021/09/17 04:22:41;;;;;;;23.83;17.40;;;;;;;14.17;98.10;100194.81;5055476;28;20055;-71
2021/09/17 04:25:10;;;;;;;25.25;18.13;;;;;;;14.18;98.10;100195.66;5055854;28;20044;-69
2021/09/17 04:27:38;;;;;;;24.33;18.90;;;;;;;14.12;98.26;100195.16;5054876;28;20073;-69
2021/09/17 04:30:06;;;;;;;20.90;17.80;;;;;;;14.11;98.76;100197.97;5055386;28;20079;-69
2021/09/17 04:32:33;;;;;;;25.10;18.27;;;;;;;14.11;99.05;100192.59;5055778;28;20041;-69
2021/09/17 04:35:01;;;;;;;22.50;18.33;;;;;;;14.20;98.30;100199.09;5054115;28;20048;-73
2021/09/17 04:37:28;;;;;;;20.13;17.05;;;;;;;14.22;97.79;100192.63;5038059;28;20079;-71
2021/09/17 04:39:56;;;;;;;22.65;17.65;;;;;;;14.23;96.86;100191.66;5055669;28;20048;-69
2021/09/17 04:42:23;;;;;;;27.73;18.55;;;;;;;14.26;96.93;100195.94;5055487;28;20081;-72
2021/09/17 04:44:50;;;;;;;21.27;16.90;;;;;;;14.27;96.76;100197.63;5054419;28;20143;-70
2021/09/17 04:47:17;;;;;;;25.52;18.92;;;;;;;14.18;97.29;100188.50;5054174;28;20051;-69
2021/09/17 04:49:44;;;;;;;24.85;16.90;;;;;;;14.20;96.63;100194.59;5055513;28;20053;-70
2021/09/17 04:52:11;;;;;;;22.90;17.08;;;;;;;14.19;96.72;100197.38;5055018;28;20188;-71
2021/09/17 04:54:39;;;;;;;21.75;17.55;;;;;;;14.14;97.24;100197.72;5036876;28;20399;-74
2021/09/17 04:57:06;;;;;;;23.08;17.80;;;;;;;14.18;97.06;100204.59;5043991;28;20052;-76
2021/09/17 04:59:34;;;;;;;23.40;17.27;;;;;;;14.19;97.38;100200.06;5037387;28;20136;-74
2021/09/17 05:02:02;;;;;;;24.88;17.13;;;;;;;14.22;95.93;100197.16;5036333;28;20067;-75
2021/09/17 05:04:31;;;;;;;22.00;17.33;;;;;;;14.21;96.46;100200.78;5045100;28;20095;-72
2021/09/17 05:06:58;;;;;;;23.80;16.98;;;;;;;14.21;95.87;100195.41;5047481;28;20128;-72
2021/09/17 05:09:26;;;;;;;23.75;17.00;;;;;;;14.18;96.60;100198.34;5054117;28;20041;-73
2021/09/17 05:11:53;;;;;;;21.98;17.08;;;;;;;14.17;96.69;100200.16;5051459;28;20060;-72
2021/09/17 05:14:20;;;;;;;22.05;16.92;;;;;;;14.20;95.62;100201.75;5043140;28;20072;-72
2021/09/17 05:16:47;;;;;;;22.45;17.52;;;;;;;14.19;95.92;100200.94;5048720;28;20128;-75
2021/09/17 05:19:15;;;;;;;20.98;16.40;;;;;;;14.23;96.00;100206.91;5043747;28;20124;-71
2021/09/17 05:21:45;;;;;;;21.15;17.20;;;;;;;14.25;95.48;100197.78;5051588;28;20036;-72
2021/09/17 05:24:12;;;;;;;24.45;17.33;;;;;;;14.18;95.95;100196.53;5053934;28;20049;-72
2021/09/17 05:26:39;;;;;;;22.02;17.23;;;;;;;14.25;95.14;100203.16;5046544;28;20045;-70
2021/09/17 05:29:06;;;;;;;21.27;17.23;;;;;;;14.23;94.94;100199.72;5052719;28;20057;-73
2021/09/17 05:31:33;;;;;;;22.98;16.80;;;;;;;14.26;95.40;100198.63;5053314;28;20037;-73
2021/09/17 05:34:00;;;;;;;21.77;17.38;;;;;;;14.25;95.30;100197.78;5054428;28;20045;-73
2021/09/17 05:36:27;;;;;;;23.27;17.83;;;;;;;14.23;95.36;100199.72;5049640;28;20061;-72
2021/09/17 05:38:55;;;;;;;21.48;16.15;;;;;;;14.24;95.71;100201.44;5034116;28;20052;-71
2021/09/17 05:41:22;;;;;;;23.58;17.10;;;;;;;14.26;95.85;100202.16;5068217;28;20235;-70
2021/09/17 05:43:50;;;;;;;19.75;15.52;;;;;;;14.25;95.51;100204.97;5052527;28;20438;-73
2021/09/17 05:46:18;;;;;;;24.27;17.65;;;;;;;14.29;95.20;100200.22;5052544;28;20056;-72
2021/09/17 05:48:45;;;;;;;25.55;17.52;;;;;;;14.28;95.15;100206.56;5052639;28;20075;-71
2021/09/17 05:51:12;;;;;;;21.63;17.30;;;;;;;14.33;94.94;100207.06;5044375;28;20341;-69
2021/09/17 05:53:59;;;;;;;24.10;16.70;;;;;;;14.31;95.26;100200.94;5039581;28;20059;-71
2021/09/17 05:56:26;;;;;;;20.17;16.40;;;;;;;14.38;94.87;100211.13;5053271;28;20072;-74
2021/09/17 05:58:56;;;;;;;22.88;17.20;;;;;;;14.37;95.73;100211.22;5054369;28;20045;-78
2021/09/17 06:01:23;;;;;;;;;;;;;;;14.37;96.09;100211.22;5037151;28;20045;-68
2021/09/17 06:03:51;;;;;;;28.80;17.00;;;;;;;14.42;95.22;100208.22;5040896;28;19928;-73
2021/09/17 06:06:19;;;;;;;25.13;18.10;;;;;;;14.39;95.96;100211.97;5050818;28;20045;-74
2021/09/17 06:08:48;;;;;;;23.55;17.48;;;;;;;14.40;96.52;100209.16;5052163;28;20048;-75
2021/09/17 06:11:16;;;;;;;21.98;17.35;;;;;;;14.49;95.53;100204.06;5056551;28;20065;-71
2021/09/17 06:13:44;;;;;;;31.88;19.05;;;;;;;14.48;95.82;100205.91;5055206;28;20045;-74
2021/09/17 06:16:12;;;;;;;28.35;18.10;;;;;;;14.52;95.41;100207.38;5057631;28;20492;-71
2021/09/17 06:18:42;;;;;;;25.85;18.40;;;;;;;14.55;94.93;100202.75;5053741;28;20049;-72
2021/09/17 06:21:10;;;;;;;24.83;18.13;;;;;;;14.55;95.25;100194.69;5037180;28;20038;-70
2021/09/17 06:23:38;;;;;;;22.63;17.42;;;;;;;14.67;94.92;100205.31;5037181;28;20045;-71
2021/09/17 06:26:11;;;;;;;24.75;18.65;;;;;;;14.71;94.56;100203.25;5040598;28;20431;-70
2021/09/17 06:28:38;;;;;;;22.75;17.42;;;;;;;14.76;94.45;100193.03;5037898;28;20054;-73
2021/09/17 06:31:05;;;;;;;31.00;18.17;;;;;;;14.76;94.71;100192.19;5037979;28;20050;-72
2021/09/17 06:33:32;;;;;;;24.83;18.05;;;;;;;14.80;94.80;100194.53;5036477;28;20442;-71
2021/09/17 06:35:59;;;;;;;22.80;17.23;;;;;;;14.84;95.04;100194.25;5055955;28;20067;-72
2021/09/17 06:38:26;;;;;;;23.50;17.70;;;;;;;14.92;93.42;100199.88;5055912;28;20498;-71
2021/09/17 06:40:56;;;;;;;23.20;17.85;;;;;;;14.94;94.05;100203.31;5056959;28;20057;-75
2021/09/17 06:43:23;;;;;;;24.80;18.05;;;;;;;14.99;93.12;100195.72;5070443;28;20137;-74
2021/09/17 06:45:50;;;;;;;26.90;18.48;;;;;;;15.07;92.70;100201.38;5049237;28;20056;-72
2021/09/17 06:48:17;;;;;;;26.23;18.38;;;;;;;15.13;92.33;100202.72;5048981;28;20079;-75
2021/09/17 06:50:44;;;;;;;23.00;17.67;;;;;;;15.13;91.96;100191.09;5056138;28;20033;-71
2021/09/17 06:53:12;;;;;;;22.75;16.85;;;;;;;15.07;92.30;100185.25;5052080;28;20341;-73
2021/09/17 06:55:38;;;;;;;26.30;19.23;;;;;;;15.16;92.59;100197.06;5054782;28;20053;-72
2021/09/17 06:58:06;;;;;;;25.00;17.73;;;;;;;15.24;91.60;100199.16;5057275;28;20464;-71
2021/09/17 07:00:36;;;;;;;24.65;17.42;;;;;;;15.27;92.02;100204.31;5047370;28;20490;-74
2021/09/17 07:03:04;;;;;;;25.73;17.60;;;;;;;15.34;91.58;100202.84;5049443;28;20045;-70
2021/09/17 07:05:32;;;;;;;24.63;18.95;;;;;;;15.36;92.21;100200.00;5053969;28;20037;-71
2021/09/17 07:08:04;;;;;;;22.95;17.42;;;;;;;15.37;91.82;100196.34;5054248;28;20045;-69
2021/09/17 07:10:34;;;;;;;25.05;17.77;;;;;;;15.46;90.67;100195.59;5053065;28;20322;-70
2021/09/17 07:13:02;;;;;;;23.52;17.35;;;;;;;15.46;91.42;100183.97;5050037;28;20444;-71
2021/09/17 07:15:30;;;;;;;27.17;18.00;;;;;;;15.55;91.13;100193.13;5055944;28;20049;-70
2021/09/17 07:17:57;;;;;;;29.52;17.77;;;;;;;15.55;92.27;100193.13;5044809;28;20046;-71
2021/09/17 07:20:24;;;;;;;26.15;17.88;;;;;;;15.57;90.79;100191.16;5037537;28;20104;-68
2021/09/17 07:22:51;;;;;;;26.45;17.70;;;;;;;15.60;91.76;100189.06;5044526;28;20342;-71
2021/09/17 07:25:19;;;;;;;26.83;17.92;;;;;;;15.66;91.63;100190.44;5057108;28;20040;-69
2021/09/17 07:27:46;;;;;;;24.60;17.17;;;;;;;15.68;91.19;100187.63;5056711;28;20040;-69
2021/09/17 07:30:15;;;;;;;24.17;17.13;;;;;;;15.73;91.45;100196.13;5056813;28;20059;-69
2021/09/17 07:32:42;;;;;;;26.05;17.38;;;;;;;15.79;91.94;100192.94;5056021;28;20076;-70
2021/09/17 07:35:14;;;;;;;21.55;16.92;;;;;;;15.84;90.75;100198.81;5049701;28;20083;-70
2021/09/17 07:37:41;;;;;;;25.38;18.10;;;;;;;15.89;90.71;100190.34;5056676;28;20137;-68
2021/09/17 07:40:13;;;;;;;25.52;17.05;;;;;;;15.96;89.69;100196.97;5056860;28;20055;-70
2021/09/17 07:42:42;;;;;;;27.25;17.75;;;;;;;16.01;87.93;100193.88;5056474;28;20432;-71
2021/09/17 07:45:10;;;;;;;24.73;17.10;;;;;;;16.01;88.14;100196.56;5055676;28;20061;-72
2021/09/17 07:47:38;;;;;;;25.13;18.10;;;;;;;16.11;87.23;100200.22;5056466;28;20124;-68
2021/09/17 07:50:07;;;;;;;21.90;16.67;;;;;;;16.17;87.14;100198.00;5056331;28;20055;-73
2021/09/17 07:52:34;;;;;;;26.08;17.38;;;;;;;16.10;87.81;100193.13;5056536;28;20040;-70
2021/09/17 07:55:06;;;;;;;21.90;16.95;;;;;;;16.16;88.22;100199.81;5056088;28;20049;-72
2021/09/17 07:57:33;;;;;;;23.15;16.08;;;;;;;16.27;87.90;100198.91;5056503;28;20086;-69
2021/09/17 08:00:06;;;;;;;22.55;16.98;;;;;;;16.20;87.63;100195.91;5056220;28;20041;-72
2021/09/17 08:02:41;;;;;;;22.67;17.77;;;;;;;16.20;86.71;100198.59;5056607;28;20442;-69
2021/09/17 08:05:12;;;;;;;22.48;17.80;;;;;;;16.28;87.00;100201.47;5054951;28;20052;-71
2021/09/17 08:07:39;;;;;;;21.42;16.58;;;;;;;16.28;86.56;100212.25;5055234;28;20048;-71
2021/09/17 08:10:07;;;;;;;24.65;16.95;;;;;;;16.31;87.02;100205.75;5055191;28;20067;-71
2021/09/17 08:12:34;;;;;;;23.85;16.55;;;;;;;16.37;86.53;100204.38;5056190;28;20065;-74
2021/09/17 08:15:04;;;;;;;22.70;16.55;;;;;;;16.47;86.96;100207.13;5055087;28;20049;-69
2021/09/17 08:17:31;;;;;;;25.65;15.57;;;;;;;16.53;86.99;100209.31;5052558;28;20124;-71
2021/09/17 08:20:04;;;;;;;24.73;16.65;;;;;;;16.60;85.88;100205.09;5069466;28;20053;-71
2021/09/17 08:22:31;;;;;;;23.33;16.67;;;;;;;16.72;85.53;100213.97;5040949;28;20057;-71
2021/09/17 08:24:59;;;;;;;26.33;17.55;;;;;;;16.76;84.73;100204.63;5052507;28;20041;-69
2021/09/17 08:27:26;;;;;;;23.77;16.15;;;;;;;16.85;84.67;100203.00;5053651;28;20044;-72
2021/09/17 08:29:53;;;;;;;23.13;16.48;;;;;;;16.86;85.68;100203.81;5048425;28;20057;-71
2021/09/17 08:32:20;;;;;;;23.42;16.88;;;;;;;16.95;84.88;100206.56;5052740;28;20385;-70
2021/09/17 08:34:47;;;;;;;21.05;16.33;;;;;;;16.95;84.96;100201.19;5038214;28;20053;-71
2021/09/17 08:37:15;;;;;;;26.40;16.80;;;;;;;17.00;84.00;100208.03;5054029;28;20095;-72
2021/09/17 08:39:42;;;;;;;21.85;17.10;;;;;;;16.98;84.85;100197.38;5055281;28;20464;-71
2021/09/17 08:42:11;;;;;;;26.20;16.98;;;;;;;17.10;85.14;100196.31;5054184;28;20053;-73
2021/09/17 08:44:39;;;;;;;23.33;16.10;;;;;;;17.15;85.22;100198.59;5055516;28;20119;-72
2021/09/17 08:47:07;;;;;;;28.02;16.83;;;;;;;17.23;84.62;100187.16;5055526;28;20136;-70
2021/09/17 08:49:36;;;;;;;22.77;15.18;;;;;;;17.34;84.53;100191.59;5054450;28;20041;-70
2021/09/17 08:52:04;;;;;;;21.38;16.75;;;;;;;17.35;84.82;100188.75;5055642;28;20056;-69
2021/09/17 08:54:31;;;;;;;22.75;15.63;;;;;;;17.49;84.00;100187.50;5054723;28;20044;-71
2021/09/17 08:57:05;;;;;;;21.70;15.85;;;;;;;17.59;84.33;100184.81;5054024;28;20049;-70
2021/09/17 08:59:33;;;;;;;26.98;15.57;;;;;;;17.63;84.44;100180.88;5053989;28;20099;-69
2021/09/17 09:02:19;;;;;;;22.60;16.48;;;;;;;17.77;82.83;100176.88;5054766;28;20103;-70
2021/09/17 09:05:07;;;;;;;29.80;16.30;;;;;;;17.85;83.93;100178.03;5054740;28;20071;-71
2021/09/17 09:07:36;;;;;;;20.38;15.38;;;;;;;18.01;81.62;100177.47;5053964;28;20037;-73
2021/09/17 09:10:09;;;;;;;19.95;15.75;;;;;;;17.96;81.71;100177.91;5054146;28;20055;-72
2021/09/17 09:12:55;;;;;;;25.50;16.85;;;;;;;18.00;81.62;100184.75;5054814;28;20091;-72
2021/09/17 09:15:26;;;;;;;25.95;16.88;;;;;;;18.01;82.12;100180.19;5054973;28;20048;-73
2021/09/17 09:17:58;;;;;;;23.40;17.20;;;;;;;18.12;81.91;100187.31;5055023;28;20095;-73
2021/09/17 09:20:39;;;;;;;21.38;16.23;;;;;;;18.21;82.06;100183.78;5047578;28;20041;-73
2021/09/17 09:23:07;;;;;;;22.25;16.48;;;;;;;18.28;81.93;100184.91;5042802;28;20044;-70
2021/09/17 09:25:47;;;;;;;23.90;16.83;;;;;;;18.36;83.24;100188.75;5043245;28;20080;-71
2021/09/17 09:28:17;;;;;;;21.50;16.60;;;;;;;18.43;82.65;100181.75;5053834;28;20056;-71
2021/09/17 09:30:45;;;;;;;19.40;14.73;;;;;;;18.55;81.35;100180.59;5053500;28;20053;-74
2021/09/17 09:33:22;;;;;;;23.38;16.42;;;;;;;18.65;80.29;100179.72;5053453;28;20139;-70
2021/09/17 09:36:20;;;;;;;22.80;14.30;;;;;;;18.77;78.92;100183.09;5035587;28;20045;-72
2021/09/17 09:38:51;;;;;;;19.95;14.45;;;;;;;18.75;77.85;100185.09;5033972;28;20084;-69
2021/09/17 09:41:21;;;;;;;21.27;13.75;;;;;;;18.87;76.83;100173.94;5034586;28;20398;-70
2021/09/17 09:43:50;;;;;;;19.42;13.93;;;;;;;18.86;77.50;100187.63;5034837;28;20120;-71
2021/09/17 09:46:24;;;;;;;20.25;13.93;;;;;;;18.87;77.10;100189.34;5034475;28;20045;-73
2021/09/17 09:49:12;;;;;;;24.95;15.07;;;;;;;18.78;76.80;100179.41;5039492;28;20040;-72
2021/09/17 09:51:42;;;;;;;19.77;14.10;;;;;;;18.86;76.60;100177.66;5036895;28;20361;-72
2021/09/17 09:54:10;;;;;;;20.33;14.73;;;;;;;18.87;77.23;100173.94;5054590;28;20429;-71
2021/09/17 09:56:38;;;;;;;24.60;15.82;;;;;;;18.77;76.68;100180.38;5051511;28;20163;-73
2021/09/17 09:59:07;;;;;;;19.60;14.00;;;;;;;18.88;77.84;100174.81;5054412;28;20041;-72
2021/09/17 10:01:37;;;;;;;19.23;14.52;;;;;;;18.94;77.46;100173.34;5054386;28;20049;-74
2021/09/17 10:04:07;;;;;;;20.88;15.38;;;;;;;19.02;76.47;100176.22;5054636;28;20472;-71
2021/09/17 10:06:37;;;;;;;20.42;14.45;;;;;;;19.20;77.91;100173.56;5050151;28;20061;-73
2021/09/17 10:09:06;;;;;;;21.63;15.35;;;;;;;19.29;76.50;100176.38;5066702;28;20068;-70
2021/09/17 10:11:33;;;;;;;25.80;15.15;;;;;;;19.35;75.53;100167.66;5044457;28;20041;-73
2021/09/17 10:14:07;;;;;;;20.50;13.70;;;;;;;19.31;75.34;100164.41;5053415;28;20057;-77
2021/09/17 10:16:35;;;;;;;22.20;15.52;;;;;;;19.32;75.60;100182.34;5053479;28;20045;-75
2021/09/17 10:19:03;;;;;;;18.30;13.63;;;;;;;19.43;76.78;100170.44;5054223;28;20045;-77
2021/09/17 10:21:45;;;;;;;21.77;14.30;;;;;;;19.49;75.67;100168.97;5067174;28;20076;-73
2021/09/17 10:24:29;;;;;;;22.55;14.60;;;;;;;19.51;76.60;100172.41;5044371;28;20033;-74
2021/09/17 10:27:04;;;;;;;23.02;13.57;;;;;;;19.76;76.33;100172.66;5040516;28;20037;-75
2021/09/17 10:29:32;;;;;;;19.08;14.45;;;;;;;19.67;75.01;100178.00;5040850;28;20465;-75
2021/09/17 10:32:00;;;;;;;20.48;14.05;;;;;;;19.84;74.19;100175.47;5045208;28;20076;-74
2021/09/17 10:34:33;;;;;;;22.42;13.98;;;;;;;19.76;73.64;100175.38;5046569;28;20038;-74
2021/09/17 10:37:00;;;;;;;22.30;14.88;;;;;;;19.79;71.86;100166.94;5045724;28;20045;-75
2021/09/17 10:39:31;;;;;;;22.05;14.77;;;;;;;19.76;71.27;100173.53;5038088;28;20077;-76
2021/09/17 10:42:07;;;;;;;20.80;14.77;;;;;;;19.70;71.45;100168.72;5032201;28;20053;-76
2021/09/17 10:45:02;;;;;;;21.42;15.48;;;;;;;19.76;71.79;100172.66;5045116;28;20321;-74
2021/09/17 10:47:41;;;;;;;19.65;13.43;;;;;;;20.11;71.37;100171.00;5051340;28;20257;-75
2021/09/17 10:50:11;;;;;;;19.10;12.18;;;;;;;20.21;70.47;100171.75;5054720;28;20049;-76
2021/09/17 10:52:43;;;;;;;20.38;13.50;;;;;;;20.12;69.85;100178.13;5054440;28;20091;-75
2021/09/17 10:55:44;;;;;;;17.90;14.02;;;;;;;20.18;67.68;100182.94;5047920;28;20128;-76
2021/09/17 10:58:26;;;;;;;19.90;14.00;;;;;;;20.49;68.14;100173.50;5043523;28;20049;-75
2021/09/17 11:01:10;;;;;;;19.92;14.20;;;;;;;20.58;65.54;100168.97;5036200;28;20606;-74
2021/09/17 11:03:45;;;;;;;22.10;14.85;;;;;;;20.50;65.48;100172.50;5050745;28;20049;-74
2021/09/17 11:06:21;;;;;;;22.50;13.90;;;;;;;20.46;66.10;100163.81;5057134;28;20091;-75
2021/09/17 11:09:02;;;;;;;21.13;14.07;;;;;;;20.57;67.25;100170.84;5057508;28;20041;-76
2021/09/17 11:11:40;;;;;;;18.15;12.50;;;;;;;20.96;67.85;100160.59;5057455;28;20056;-76
2021/09/17 11:14:19;;;;;;;22.02;13.57;;;;;;;21.24;66.55;100161.22;5048362;28;20041;-76
2021/09/17 11:16:53;;;;;;;18.33;13.15;;;;;;;21.50;63.13;100154.84;5044977;28;20041;-76
2021/09/17 11:19:20;;;;;;;19.27;11.27;;;;;;;21.71;62.92;100159.00;5057636;28;20106;-76